Terminal Aerodrome Forecast
Issued by NWS Cleveland, OH

Home | Current Version | Previous Version | Graphics & Text | Print | Product List | Glossary On
Versions: 1 2 3 4 5 6 7 8 9 10 11 12
000
FTUS41 KCLE 232320
TAFERI
TAF
KERI 232320Z 2400/2424 25005KT P6SM SKC
     FM240900 VRB03KT P6SM SKC
     FM241900 32007KT P6SM SKC
     FM242300 22004KT P6SM SKC=

USA.gov is the U.S. government's official web portal to all federal, state and local government web resources and services.